Time;durP1;ratioP1;P1;durP2;ratioP2;P2;SDS_P1;SDS_P2;PMS_P1;PMS_P2;Temp;Humidity;BMP_temperature;BMP_pressure;BME280_temperature;BME280_humidity;BME280_pressure;Samples;Min_cycle;Max_cycle;Signal;HPM_P1;HPM_P2
2021/10/15 00:00:08;;;;;;;15.10;8.93;;;7.60;1.00;;;;;;4420985;28;655844;-69
2021/10/15 00:03:00;;;;;;;19.17;10.43;;;7.50;1.00;;;;;;4426783;28;653933;-68
2021/10/15 00:05:48;;;;;;;19.37;10.60;;;7.50;1.00;;;;;;4426185;28;654693;-68
2021/10/15 00:08:35;;;;;;;15.53;9.27;;;7.50;1.00;;;;;;4432683;28;654775;-68
2021/10/15 00:11:24;;;;;;;18.53;9.47;;;7.50;1.00;;;;;;4446334;28;654721;-68
2021/10/15 00:14:12;;;;;;;16.07;9.17;;;7.50;1.00;;;;;;4423976;28;654652;-69
2021/10/15 00:16:59;;;;;;;16.33;9.57;;;7.60;1.00;;;;;;4443067;28;655420;-68
2021/10/15 00:19:47;;;;;;;18.07;9.97;;;7.60;1.00;;;;;;4421494;28;654835;-69
2021/10/15 00:22:35;;;;;;;15.17;9.57;;;7.60;1.70;;;;;;4443020;28;653837;-69
2021/10/15 00:25:22;;;;;;;14.13;8.83;;;7.60;5.70;;;;;;4420752;28;654741;-68
2021/10/15 00:28:11;;;;;;;17.13;9.60;;;7.60;6.30;;;;;;4444014;28;653881;-68
2021/10/15 00:30:59;;;;;;;15.57;8.88;;;7.60;9.40;;;;;;4418767;28;654037;-69
2021/10/15 00:33:46;;;;;;;18.13;8.50;;;7.60;9.50;;;;;;4421255;28;654588;-68
2021/10/15 00:36:34;;;;;;;17.48;7.43;;;7.60;13.80;;;;;;4438316;28;655027;-68
2021/10/15 00:39:21;;;;;;;21.73;7.90;;;7.60;15.70;;;;;;4421558;28;654313;-68
2021/10/15 00:42:09;;;;;;;19.37;10.10;;;7.60;16.20;;;;;;4437361;28;656454;-68
2021/10/15 00:44:57;;;;;;;15.40;9.07;;;7.60;15.60;;;;;;4426575;28;656080;-68
2021/10/15 00:47:45;;;;;;;17.67;8.77;;;7.60;21.30;;;;;;4436668;28;655815;-69
2021/10/15 00:50:33;;;;;;;15.77;9.00;;;7.60;21.90;;;;;;4438803;28;655953;-69
2021/10/15 00:53:21;;;;;;;14.60;9.13;;;7.60;22.20;;;;;;4418764;28;655204;-68
2021/10/15 00:56:09;;;;;;;19.57;9.23;;;7.60;20.90;;;;;;4443155;28;654906;-68
2021/10/15 00:58:58;;;;;;;17.70;9.17;;;7.60;18.00;;;;;;4414771;28;654776;-68
2021/10/15 01:01:47;;;;;;;18.23;10.45;;;7.60;19.40;;;;;;4418344;28;655233;-68
2021/10/15 01:04:35;;;;;;;18.85;9.82;;;7.70;15.70;;;;;;4436982;28;656136;-68
2021/10/15 01:07:22;;;;;;;19.07;10.70;;;7.60;14.70;;;;;;4414457;28;655870;-68
2021/10/15 01:10:10;;;;;;;15.30;9.77;;;7.60;11.80;;;;;;4436801;28;656328;-68
2021/10/15 01:12:57;;;;;;;17.10;9.20;;;7.70;11.50;;;;;;4417436;28;656292;-68
2021/10/15 01:15:45;;;;;;;15.10;8.57;;;7.70;12.40;;;;;;4435904;28;656462;-68
2021/10/15 01:18:34;;;;;;;17.30;8.33;;;7.70;9.60;;;;;;4416937;28;656420;-69
2021/10/15 01:21:23;;;;;;;18.07;8.43;;;7.70;5.90;;;;;;4423208;28;653389;-68
2021/10/15 01:24:11;;;;;;;14.10;7.70;;;7.80;5.50;;;;;;4419058;28;653918;-68
2021/10/15 01:27:02;;;;;;;12.90;7.70;;;7.70;8.80;;;;;;4438200;28;654203;-68
2021/10/15 01:29:50;;;;;;;13.83;7.77;;;7.70;7.40;;;;;;4417267;28;654019;-69
2021/10/15 01:32:37;;;;;;;14.97;8.27;;;7.70;5.30;;;;;;4416176;28;655573;-68
2021/10/15 01:35:25;;;;;;;12.63;6.80;;;7.80;1.10;;;;;;4438374;28;653358;-69
2021/10/15 01:38:15;;;;;;;15.17;6.97;;;7.80;1.00;;;;;;4441330;28;654090;-68
2021/10/15 01:41:02;;;;;;;15.13;6.83;;;7.80;1.00;;;;;;4418434;28;654403;-68
2021/10/15 01:43:50;;;;;;;12.13;6.60;;;7.80;1.00;;;;;;4438311;28;653278;-68
2021/10/15 01:46:38;;;;;;;9.63;6.17;;;7.80;1.00;;;;;;4438543;28;655205;-68
2021/10/15 01:49:25;;;;;;;11.90;7.03;;;7.80;1.00;;;;;;4417429;28;652788;-68
2021/10/15 01:52:13;;;;;;;11.57;6.67;;;7.80;1.00;;;;;;4439637;28;654527;-68
2021/10/15 01:55:02;;;;;;;19.47;6.83;;;7.80;1.00;;;;;;4419204;28;653636;-68
2021/10/15 01:57:50;;;;;;;12.93;7.17;;;7.80;1.00;;;;;;4442558;28;654103;-69
2021/10/15 02:00:37;;;;;;;10.23;6.63;;;7.90;1.00;;;;;;4421316;28;654683;-69
2021/10/15 02:03:25;;;;;;;10.65;6.82;;;7.80;1.00;;;;;;4439322;28;654390;-68
2021/10/15 02:06:13;;;;;;;14.20;7.60;;;7.80;1.00;;;;;;4419265;28;654709;-68
2021/10/15 02:09:00;;;;;;;13.13;7.60;;;7.80;1.00;;;;;;4430989;28;653885;-68
2021/10/15 02:11:49;;;;;;;11.77;7.90;;;7.90;1.00;;;;;;4441869;28;654986;-68
2021/10/15 02:14:37;;;;;;;12.33;7.90;;;7.90;1.00;;;;;;4421898;28;653298;-69
2021/10/15 02:17:24;;;;;;;17.70;9.03;;;7.90;1.00;;;;;;4441563;28;653992;-68
2021/10/15 02:20:13;;;;;;;18.73;8.93;;;7.90;1.00;;;;;;4421536;28;654304;-68
2021/10/15 02:23:01;;;;;;;19.20;10.27;;;7.80;1.00;;;;;;4423156;28;653185;-68
2021/10/15 02:25:49;;;;;;;19.97;10.33;;;7.80;1.00;;;;;;4443194;28;654358;-68
2021/10/15 02:28:38;;;;;;;18.50;10.35;;;7.80;1.00;;;;;;4419788;28;655284;-68
2021/10/15 02:31:25;;;;;;;16.27;9.17;;;7.80;1.00;;;;;;4428059;28;654611;-68
2021/10/15 02:34:13;;;;;;;15.07;7.93;;;7.70;1.00;;;;;;4441450;28;654886;-69
2021/10/15 02:37:01;;;;;;;12.97;8.30;;;7.70;1.00;;;;;;4426484;28;653347;-68
2021/10/15 02:39:49;;;;;;;15.93;8.00;;;7.70;1.00;;;;;;4445576;28;653729;-69
2021/10/15 02:42:36;;;;;;;13.10;7.77;;;7.70;1.00;;;;;;4425709;28;653465;-68
2021/10/15 02:45:25;;;;;;;13.27;7.77;;;7.70;1.00;;;;;;4442634;28;653974;-69
2021/10/15 02:48:13;;;;;;;14.50;8.20;;;7.70;1.00;;;;;;4422355;28;654487;-68
2021/10/15 02:51:00;;;;;;;14.13;7.60;;;7.60;1.00;;;;;;4434653;28;653412;-68
2021/10/15 02:53:48;;;;;;;12.70;7.80;;;7.60;3.20;;;;;;4445630;28;655166;-68
2021/10/15 02:56:36;;;;;;;13.33;8.00;;;7.60;99.90;;;;;;4422185;28;653440;-68
2021/10/15 02:59:23;;;;;;;11.43;7.17;;;7.60;99.90;;;;;;4449038;28;655735;-68
2021/10/15 03:02:12;;;;;;;15.70;7.83;;;7.60;99.90;;;;;;4424046;28;654677;-68
2021/10/15 03:05:00;;;;;;;15.73;7.87;;;7.70;99.90;;;;;;4438654;28;654952;-68
2021/10/15 03:07:47;;;;;;;16.57;7.57;;;7.60;99.90;;;;;;4421468;28;655573;-68
2021/10/15 03:10:35;;;;;;;17.60;8.50;;;7.70;99.90;;;;;;4443354;28;654508;-68
2021/10/15 03:13:23;;;;;;;15.63;8.57;;;7.70;99.90;;;;;;4423029;28;655372;-68
2021/10/15 03:16:22;;;;;;;19.25;9.10;;;7.70;99.90;;;;;;4423019;28;654230;-69
2021/10/15 03:19:12;;;;;;;15.60;7.72;;;7.70;99.90;;;;;;4417625;28;654673;-68
2021/10/15 03:22:00;;;;;;;17.52;8.70;;;7.70;99.90;;;;;;4439774;28;654340;-68
2021/10/15 03:24:47;;;;;;;19.03;9.07;;;7.70;99.90;;;;;;4424684;28;655656;-68
2021/10/15 03:27:35;;;;;;;15.10;8.23;;;7.70;99.90;;;;;;4442194;28;654973;-68
2021/10/15 03:30:28;;;;;;;13.10;7.93;;;7.70;99.90;;;;;;4499321;28;655524;-68
2021/10/15 03:33:16;;;;;;;13.13;8.93;;;7.60;99.90;;;;;;4402348;28;656215;-68
2021/10/15 03:36:07;;;;;;;18.83;9.13;;;7.70;99.90;;;;;;4446881;28;654680;-68
2021/10/15 03:38:56;;;;;;;20.40;9.23;;;7.70;99.90;;;;;;4408114;28;654549;-68
2021/10/15 03:41:45;;;;;;;15.43;8.90;;;7.70;99.90;;;;;;4404406;28;655367;-68
2021/10/15 03:44:34;;;;;;;14.80;8.53;;;7.70;99.90;;;;;;4407146;28;655494;-68
2021/10/15 03:47:23;;;;;;;13.43;8.47;;;7.70;99.90;;;;;;4410398;28;654618;-68
2021/10/15 03:50:11;;;;;;;13.23;8.35;;;7.70;99.90;;;;;;4407207;28;655294;-68
2021/10/15 03:53:01;;;;;;;14.43;8.47;;;7.70;99.90;;;;;;4424479;28;654804;-68
2021/10/15 03:55:49;;;;;;;15.15;8.93;;;7.70;99.90;;;;;;4406212;28;655197;-68
2021/10/15 03:58:38;;;;;;;18.20;8.77;;;7.70;99.90;;;;;;4414029;28;654319;-68
2021/10/15 04:01:27;;;;;;;15.57;8.83;;;7.70;99.90;;;;;;4411376;28;654756;-68
2021/10/15 04:04:16;;;;;;;14.47;9.40;;;7.70;99.90;;;;;;4425656;28;656681;-68
2021/10/15 04:07:04;;;;;;;15.73;9.67;;;7.70;99.90;;;;;;4400997;28;655242;-68
2021/10/15 04:09:53;;;;;;;16.50;8.63;;;7.70;99.90;;;;;;4404008;28;654689;-68
2021/10/15 04:12:41;;;;;;;16.73;9.03;;;7.70;99.90;;;;;;4405584;28;656342;-68
2021/10/15 04:15:28;;;;;;;15.37;9.07;;;7.70;99.90;;;;;;4430259;28;655112;-68
2021/10/15 04:18:16;;;;;;;14.47;8.13;;;7.70;99.90;;;;;;4404398;28;654464;-68
2021/10/15 04:21:03;;;;;;;15.43;9.17;;;7.70;99.90;;;;;;4428006;28;655550;-68
2021/10/15 04:23:51;;;;;;;17.80;9.67;;;7.70;99.90;;;;;;4408632;28;654870;-68
2021/10/15 04:26:40;;;;;;;17.97;10.03;;;7.70;99.90;;;;;;4426939;28;655478;-68
2021/10/15 04:29:27;;;;;;;18.83;11.50;;;7.70;99.90;;;;;;4401527;28;657425;-69
2021/10/15 04:32:15;;;;;;;20.40;11.30;;;7.70;99.90;;;;;;4426262;28;656660;-68
2021/10/15 04:35:02;;;;;;;19.80;11.03;;;7.70;99.90;;;;;;4407575;28;655491;-68
2021/10/15 04:37:50;;;;;;;21.20;11.77;;;7.70;99.90;;;;;;4423726;28;655823;-68
2021/10/15 04:40:38;;;;;;;25.27;12.80;;;7.70;99.90;;;;;;4440025;28;655833;-69
2021/10/15 04:43:27;;;;;;;21.13;12.63;;;7.70;99.90;;;;;;4421313;28;656103;-68
2021/10/15 04:46:15;;;;;;;24.42;11.63;;;7.70;99.90;;;;;;4441210;28;656459;-68
2021/10/15 04:49:02;;;;;;;22.43;11.23;;;7.70;99.90;;;;;;4415143;28;656303;-68
2021/10/15 04:51:50;;;;;;;19.70;10.87;;;7.70;99.90;;;;;;4434965;28;655513;-68
2021/10/15 04:54:38;;;;;;;18.37;11.00;;;7.70;99.90;;;;;;4443864;28;655991;-68
2021/10/15 04:57:26;;;;;;;17.13;10.17;;;7.70;99.90;;;;;;4421471;28;655537;-68
2021/10/15 05:00:27;;;;;;;18.73;9.98;;;7.70;99.90;;;;;;4422856;28;656635;-68
2021/10/15 05:03:15;;;;;;;19.33;10.77;;;7.70;99.90;;;;;;4419792;28;654392;-68
2021/10/15 05:06:02;;;;;;;17.20;10.80;;;7.70;99.90;;;;;;4414167;28;656707;-68
2021/10/15 05:09:01;;;;;;;18.63;10.03;;;7.70;99.90;;;;;;4441872;28;655516;-68
2021/10/15 05:11:49;;;;;;;17.87;10.17;;;7.70;99.90;;;;;;4411341;28;655873;-68
2021/10/15 05:14:36;;;;;;;15.93;9.83;;;7.70;99.90;;;;;;4420568;28;655499;-67
2021/10/15 05:17:25;;;;;;;18.70;9.83;;;7.70;99.90;;;;;;4441748;28;654377;-68
2021/10/15 05:20:15;;;;;;;16.80;9.57;;;7.60;99.90;;;;;;4419329;28;655635;-68
2021/10/15 05:23:02;;;;;;;16.23;9.80;;;7.60;99.90;;;;;;4415864;28;655459;-68
2021/10/15 05:25:50;;;;;;;15.67;10.10;;;7.60;99.90;;;;;;4438242;28;654518;-68
2021/10/15 05:28:39;;;;;;;19.23;10.67;;;7.60;99.90;;;;;;4453320;28;656081;-79
2021/10/15 05:31:26;;;;;;;19.70;10.30;;;7.50;99.90;;;;;;4416475;28;655298;-79
2021/10/15 05:34:16;;;;;;;18.03;10.30;;;7.40;99.90;;;;;;4436101;28;656177;-78
2021/10/15 05:37:04;;;;;;;19.27;9.70;;;7.50;99.90;;;;;;4415329;28;656550;-80
2021/10/15 05:39:52;;;;;;;16.53;9.50;;;7.40;99.90;;;;;;4420353;28;654842;-79
2021/10/15 05:42:44;;;;;;;15.60;9.50;;;7.40;99.90;;;;;;4438703;28;654899;-79
2021/10/15 05:45:32;;;;;;;14.90;9.23;;;7.40;99.90;;;;;;4416406;28;655063;-78
2021/10/15 05:48:19;;;;;;;17.90;9.43;;;7.40;99.90;;;;;;4441399;28;655007;-78
2021/10/15 05:51:08;;;;;;;15.40;9.60;;;7.40;99.90;;;;;;4425532;28;655031;-78
2021/10/15 05:53:58;;;;;;;15.57;10.07;;;7.50;99.90;;;;;;4420773;28;654351;-78
2021/10/15 05:57:00;;;;;;;17.67;9.80;;;7.60;99.90;;;;;;4421846;28;655402;-78
2021/10/15 05:59:46;;;;;;;14.77;9.47;;;7.70;99.90;;;;;;4416788;28;654485;-78
2021/10/15 06:02:35;;;;;;;19.43;10.90;;;7.80;99.90;;;;;;4452392;28;655767;-78
2021/10/15 06:14:39;;;;;;;22.37;13.60;;;8.20;99.90;;;;;;4425159;28;655934;-78
2021/10/15 06:17:27;;;;;;;26.63;13.77;;;8.30;99.90;;;;;;4424963;28;655787;-79
2021/10/15 06:20:14;;;;;;;27.40;13.10;;;8.40;99.90;;;;;;4433279;28;655830;-79
2021/10/15 06:23:02;;;;;;;18.77;10.40;;;8.50;99.90;;;;;;4422559;28;655789;-79
2021/10/15 06:25:51;;;;;;;18.27;10.80;;;8.60;99.90;;;;;;4440771;28;655645;-80
2021/10/15 06:28:38;;;;;;;15.37;8.63;;;8.60;99.90;;;;;;4422188;28;656263;-80
2021/10/15 06:31:28;;;;;;;11.33;7.17;;;8.70;99.90;;;;;;4424985;28;654810;-78
2021/10/15 06:34:18;;;;;;;14.90;7.67;;;8.80;99.90;;;;;;4428583;28;654341;-79
2021/10/15 06:37:06;;;;;;;14.47;7.17;;;8.80;99.90;;;;;;4431617;28;655049;-79
2021/10/15 06:39:53;;;;;;;10.43;6.40;;;8.80;99.90;;;;;;4449801;28;655343;-80
2021/10/15 06:42:42;;;;;;;12.60;5.60;;;8.80;99.90;;;;;;4424682;28;654304;-79
2021/10/15 06:45:30;;;;;;;9.03;5.17;;;8.90;99.90;;;;;;4440878;28;654113;-78
2021/10/15 06:48:17;;;;;;;13.07;6.30;;;9.10;99.90;;;;;;4426628;28;653404;-78
2021/10/15 06:51:05;;;;;;;13.70;7.50;;;9.30;99.90;;;;;;4449847;28;655028;-78
2021/10/15 06:53:53;;;;;;;13.67;7.00;;;9.30;99.90;;;;;;4438757;28;655424;-79
2021/10/15 06:56:40;;;;;;;15.93;7.00;;;9.30;99.90;;;;;;4421656;28;654245;-78
2021/10/15 06:59:30;;;;;;;13.20;6.80;;;9.20;99.90;;;;;;4448878;28;656056;-79
2021/10/15 07:02:17;;;;;;;14.60;7.20;;;9.20;99.90;;;;;;4424027;28;656495;-78
2021/10/15 07:05:06;;;;;;;11.73;6.60;;;9.20;99.90;;;;;;4439347;28;654503;-79
2021/10/15 07:07:54;;;;;;;10.23;5.93;;;9.20;99.90;;;;;;4443051;28;654512;-79
2021/10/15 07:10:42;;;;;;;9.25;5.88;;;9.20;99.90;;;;;;4422286;28;654416;-78
2021/10/15 07:13:29;;;;;;;11.77;5.73;;;9.20;99.90;;;;;;4441421;28;653324;-79
2021/10/15 07:16:18;;;;;;;10.77;5.77;;;9.30;99.90;;;;;;4415259;28;655474;-78
2021/10/15 07:19:06;;;;;;;11.13;5.53;;;9.50;99.90;;;;;;4427226;28;654927;-78
2021/10/15 07:21:53;;;;;;;10.57;5.72;;;9.50;99.90;;;;;;4439138;28;656579;-80
2021/10/15 07:24:41;;;;;;;9.17;5.50;;;9.60;99.90;;;;;;4423664;28;655432;-79
2021/10/15 07:27:28;;;;;;;10.20;5.13;;;9.60;99.90;;;;;;4445500;28;653965;-79
2021/10/15 07:30:16;;;;;;;10.83;5.40;;;9.60;99.90;;;;;;4426280;28;654305;-78
2021/10/15 07:33:05;;;;;;;10.23;5.70;;;9.60;99.90;;;;;;4450351;28;655654;-79
2021/10/15 07:35:53;;;;;;;8.75;4.85;;;9.70;99.90;;;;;;4420026;28;656621;-80
2021/10/15 07:38:41;;;;;;;10.27;5.57;;;9.70;99.90;;;;;;4437010;28;654158;-78
2021/10/15 07:41:28;;;;;;;12.40;6.30;;;9.80;99.90;;;;;;4449496;28;656692;-79
2021/10/15 07:44:16;;;;;;;12.33;6.43;;;9.90;99.90;;;;;;4423452;28;654681;-79
2021/10/15 07:47:03;;;;;;;11.77;5.90;;;10.00;99.90;;;;;;4448458;28;654421;-79
2021/10/15 07:49:52;;;;;;;13.67;6.00;;;10.00;99.90;;;;;;4415391;28;655454;-79
2021/10/15 07:52:41;;;;;;;10.13;5.40;;;10.00;99.90;;;;;;4451155;28;655020;-80
2021/10/15 07:55:28;;;;;;;11.77;5.43;;;10.10;99.90;;;;;;4422257;28;656858;-79
2021/10/15 07:58:16;;;;;;;9.87;4.83;;;10.20;99.90;;;;;;4419108;28;655563;-78
2021/10/15 08:01:03;;;;;;;9.40;4.70;;;10.20;99.90;;;;;;4447206;28;655804;-79
2021/10/15 08:03:51;;;;;;;9.60;4.83;;;10.40;99.90;;;;;;4423197;28;654560;-79
2021/10/15 08:06:40;;;;;;;11.10;5.27;;;10.40;99.90;;;;;;4435958;28;655005;-80
2021/10/15 08:09:28;;;;;;;9.20;5.30;;;10.50;99.90;;;;;;4428547;28;656102;-80
2021/10/15 08:12:16;;;;;;;9.53;5.10;;;10.70;99.90;;;;;;4428920;28;654671;-79
2021/10/15 08:15:03;;;;;;;10.53;5.20;;;10.60;99.90;;;;;;4442043;28;655084;-79
2021/10/15 08:17:52;;;;;;;9.87;5.87;;;10.70;99.90;;;;;;4416232;28;655939;-78
2021/10/15 08:20:41;;;;;;;9.67;6.00;;;10.70;99.90;;;;;;4434745;28;654691;-79
2021/10/15 08:23:30;;;;;;;9.10;5.90;;;10.60;99.90;;;;;;4439938;28;655327;-80
2021/10/15 08:26:17;;;;;;;13.07;6.17;;;10.70;99.90;;;;;;4424113;28;656323;-80
2021/10/15 08:29:05;;;;;;;11.57;6.67;;;10.60;99.90;;;;;;4441363;28;655166;-79
2021/10/15 08:31:52;;;;;;;11.07;6.07;;;10.60;99.90;;;;;;4419459;28;656097;-80
2021/10/15 08:34:40;;;;;;;10.47;6.00;;;10.60;99.90;;;;;;4447225;28;655710;-80
2021/10/15 08:37:27;;;;;;;10.00;6.63;;;10.70;99.90;;;;;;4423487;28;655861;-80
2021/10/15 08:40:17;;;;;;;14.57;7.63;;;10.90;99.90;;;;;;4443341;28;656422;-77
2021/10/15 08:43:05;;;;;;;13.90;6.87;;;10.90;99.90;;;;;;4439011;28;655703;-80
2021/10/15 08:45:52;;;;;;;12.93;6.10;;;11.00;99.90;;;;;;4410881;28;657184;-79
2021/10/15 08:48:41;;;;;;;12.40;6.03;;;11.20;99.90;;;;;;4436108;28;655921;-78
2021/10/15 08:51:30;;;;;;;12.83;5.20;;;11.10;99.90;;;;;;4442896;28;655460;-79
2021/10/15 08:54:17;;;;;;;9.80;5.67;;;11.20;99.90;;;;;;4413024;28;656959;-80
2021/10/15 08:57:06;;;;;;;8.97;5.30;;;11.30;99.90;;;;;;4443226;28;654365;-80
2021/10/15 08:59:54;;;;;;;12.23;6.80;;;11.60;99.90;;;;;;4426728;28;655805;-81
2021/10/15 09:02:41;;;;;;;16.60;6.87;;;11.70;99.90;;;;;;4418858;28;656195;-80
2021/10/15 09:05:29;;;;;;;11.00;6.53;;;11.70;99.90;;;;;;4446334;28;655552;-79
2021/10/15 09:08:17;;;;;;;11.87;5.03;;;11.70;99.90;;;;;;4413745;28;655743;-80
2021/10/15 09:11:05;;;;;;;8.67;4.57;;;11.60;99.90;;;;;;4444882;28;655222;-80
2021/10/15 09:14:03;;;;;;;9.10;4.87;;;11.70;99.90;;;;;;4424333;28;656230;-81
2021/10/15 09:16:59;;;;;;;11.70;5.43;;;11.60;99.90;;;;;;4420808;28;654243;-78
2021/10/15 09:19:47;;;;;;;13.33;4.70;;;11.70;99.90;;;;;;4402874;28;655763;-79
2021/10/15 09:22:35;;;;;;;8.43;4.40;;;11.80;99.90;;;;;;4442936;28;655884;-81
2021/10/15 09:25:23;;;;;;;8.77;4.47;;;11.90;99.90;;;;;;4427658;28;656011;-80
2021/10/15 09:28:19;;;;;;;10.80;4.43;;;11.70;99.90;;;;;;4426272;28;654827;-79
2021/10/15 09:31:08;;;;;;;12.90;4.70;;;11.70;99.90;;;;;;4423247;28;655304;-79
2021/10/15 09:33:57;;;;;;;10.07;4.80;;;11.90;99.90;;;;;;4427079;28;655557;-79
2021/10/15 09:36:48;;;;;;;11.27;5.20;;;11.80;99.90;;;;;;4446976;28;656521;-81
2021/10/15 09:39:37;;;;;;;10.93;4.70;;;12.00;99.90;;;;;;4396697;28;656152;-79
2021/10/15 09:42:27;;;;;;;11.80;4.83;;;12.30;99.90;;;;;;4447332;28;655500;-78
2021/10/15 09:45:16;;;;;;;7.73;4.00;;;12.40;99.90;;;;;;4440599;28;655996;-78
2021/10/15 09:48:18;;;;;;;9.93;4.53;;;12.50;99.90;;;;;;4441048;28;654722;-80
2021/10/15 09:51:14;;;;;;;12.17;4.53;;;12.50;99.90;;;;;;4393560;28;654769;-79
2021/10/15 09:54:09;;;;;;;11.63;4.50;;;12.40;99.90;;;;;;4425395;28;655696;-81
2021/10/15 09:56:56;;;;;;;9.00;3.97;;;12.40;99.90;;;;;;4403936;28;655659;-78
2021/10/15 09:59:44;;;;;;;7.70;4.33;;;12.30;99.90;;;;;;4442185;28;654672;-81
2021/10/15 10:02:32;;;;;;;7.47;3.83;;;12.30;99.90;;;;;;4433073;28;655794;-81
2021/10/15 10:05:21;;;;;;;7.00;3.00;;;12.40;99.90;;;;;;4451042;28;653320;-79
2021/10/15 10:08:10;;;;;;;8.33;2.47;;;12.30;99.90;;;;;;4424408;28;655822;-79
2021/10/15 10:10:58;;;;;;;5.20;2.40;;;12.20;99.90;;;;;;4428193;28;655368;-79
2021/10/15 10:13:45;;;;;;;4.43;2.75;;;12.40;99.90;;;;;;4420665;28;654650;-77
2021/10/15 10:16:33;;;;;;;6.17;2.73;;;12.30;99.90;;;;;;4446024;28;654911;-80
2021/10/15 10:19:21;;;;;;;6.67;3.10;;;12.70;99.90;;;;;;4426929;28;656181;-79
2021/10/15 10:22:11;;;;;;;9.27;2.93;;;12.80;99.90;;;;;;4446428;28;654593;-79
2021/10/15 10:24:58;;;;;;;6.30;2.60;;;12.70;99.90;;;;;;4423140;28;655344;-79
2021/10/15 10:27:45;;;;;;;3.20;1.85;;;12.80;99.90;;;;;;4423735;28;654466;-78
2021/10/15 10:30:40;;;;;;;4.83;2.60;;;12.90;99.90;;;;;;4445882;28;654462;-79
2021/10/15 10:33:28;;;;;;;4.07;2.37;;;13.30;99.90;;;;;;4417908;28;655112;-79
2021/10/15 10:36:16;;;;;;;4.03;2.57;;;13.40;99.90;;;;;;4424324;28;654482;-79
2021/10/15 10:39:29;;;;;;;4.83;2.80;;;13.30;99.90;;;;;;4444505;28;654897;-79
2021/10/15 10:42:18;;;;;;;5.30;2.70;;;13.40;99.90;;;;;;4422806;28;654934;-80
2021/10/15 10:45:13;;;;;;;5.47;2.40;;;13.30;99.90;;;;;;4434690;28;654610;-80
2021/10/15 10:48:04;;;;;;;3.90;2.53;;;13.20;99.90;;;;;;4397190;28;654647;-79
2021/10/15 10:51:12;;;;;;;4.53;2.20;;;13.00;99.90;;;;;;4418996;28;654915;-79
2021/10/15 10:54:25;;;;;;;4.13;2.10;;;12.70;99.90;;;;;;4415536;28;654639;-77
2021/10/15 10:57:25;;;;;;;7.37;2.67;;;12.70;99.90;;;;;;4418710;28;655389;-80
2021/10/15 11:00:22;;;;;;;4.27;2.57;;;12.50;99.90;;;;;;4398432;28;654856;-79
2021/10/15 11:03:09;;;;;;;5.13;3.23;;;12.40;99.90;;;;;;4419057;28;654183;-78
2021/10/15 11:05:57;;;;;;;4.67;2.50;;;12.30;99.90;;;;;;4425058;28;655037;-80
2021/10/15 11:08:46;;;;;;;4.40;2.70;;;12.30;99.90;;;;;;4437543;28;654171;-80
2021/10/15 11:11:39;;;;;;;5.63;3.07;;;12.40;99.90;;;;;;4419303;28;654817;-80
2021/10/15 11:14:54;;;;;;;6.63;3.10;;;12.60;99.90;;;;;;4421788;28;654954;-81
2021/10/15 11:17:45;;;;;;;5.27;2.60;;;12.70;99.90;;;;;;4397019;28;655258;-81
2021/10/15 11:20:33;;;;;;;5.53;3.00;;;12.80;99.90;;;;;;4415208;28;655774;-81
2021/10/15 11:23:20;;;;;;;5.80;3.03;;;12.90;99.90;;;;;;4429491;28;656998;-80
2021/10/15 11:26:08;;;;;;;7.73;3.00;;;12.80;99.90;;;;;;4436508;28;655177;-79
2021/10/15 11:28:57;;;;;;;6.57;3.47;;;12.70;99.90;;;;;;4421867;28;654727;-80
2021/10/15 11:31:54;;;;;;;6.73;3.70;;;12.70;99.90;;;;;;4437358;28;655036;-79
2021/10/15 11:34:42;;;;;;;7.23;3.27;;;12.70;99.90;;;;;;4423109;28;654579;-82
2021/10/15 11:37:44;;;;;;;5.30;2.70;;;12.90;99.90;;;;;;4442803;28;654004;-81
2021/10/15 11:40:37;;;;;;;3.20;2.30;;;12.80;99.90;;;;;;4426269;28;654941;-80
2021/10/15 11:43:26;;;;;;;5.47;2.80;;;12.80;99.90;;;;;;4419737;28;654576;-81
2021/10/15 11:46:15;;;;;;;4.70;2.50;;;12.70;99.90;;;;;;4420041;28;655446;-79
2021/10/15 11:49:04;;;;;;;4.20;2.80;;;12.80;99.90;;;;;;4426368;28;655249;-80
2021/10/15 11:51:58;;;;;;;5.95;2.88;;;12.80;99.90;;;;;;4419680;28;654829;-77
2021/10/15 11:54:45;;;;;;;5.50;3.20;;;12.70;99.90;;;;;;4407211;28;654076;-78
2021/10/15 11:57:33;;;;;;;5.40;3.33;;;12.70;99.90;;;;;;4438091;28;655753;-80
2021/10/15 12:00:21;;;;;;;5.37;2.80;;;12.70;99.90;;;;;;4418247;28;654642;-81
2021/10/15 12:03:09;;;;;;;4.07;2.57;;;12.60;99.90;;;;;;4448098;28;655002;-79
2021/10/15 12:05:58;;;;;;;5.90;3.30;;;12.60;99.90;;;;;;4422926;28;654861;-79
2021/10/15 12:08:46;;;;;;;4.80;3.00;;;12.50;99.90;;;;;;4419749;28;654418;-80
2021/10/15 12:11:48;;;;;;;4.53;3.00;;;12.70;99.90;;;;;;4435437;28;654947;-81
2021/10/15 12:14:36;;;;;;;5.47;2.77;;;12.80;99.90;;;;;;4394250;28;654218;-78
2021/10/15 12:17:24;;;;;;;4.57;2.70;;;13.00;99.90;;;;;;4445122;28;654774;-80
2021/10/15 12:20:14;;;;;;;6.00;2.70;;;13.10;99.90;;;;;;4418162;28;654720;-79
2021/10/15 12:23:04;;;;;;;8.30;2.67;;;13.10;99.90;;;;;;4422561;28;654351;-79
2021/10/15 12:25:52;;;;;;;3.87;2.37;;;13.40;99.90;;;;;;4418222;28;654573;-78
2021/10/15 12:28:40;;;;;;;2.67;2.10;;;13.50;99.90;;;;;;4441156;28;654902;-80
2021/10/15 12:31:29;;;;;;;3.97;2.10;;;13.30;99.90;;;;;;4420217;28;655616;-76
2021/10/15 12:34:17;;;;;;;5.20;3.10;;;12.90;99.90;;;;;;4422797;28;654283;-78
2021/10/15 12:37:09;;;;;;;4.87;2.90;;;12.60;99.90;;;;;;4445426;28;653773;-75
2021/10/15 12:40:29;;;;;;;7.47;3.33;;;12.40;99.90;;;;;;4415710;28;654402;-80
2021/10/15 12:43:17;;;;;;;4.83;2.90;;;12.30;99.90;;;;;;4380316;28;654744;-80
2021/10/15 12:46:07;;;;;;;6.50;3.10;;;12.40;99.90;;;;;;4449852;28;654584;-79
2021/10/15 12:49:02;;;;;;;5.27;3.13;;;12.50;99.90;;;;;;4418134;28;654734;-79
2021/10/15 12:51:50;;;;;;;3.43;2.40;;;13.00;99.90;;;;;;4413344;28;654859;-79
2021/10/15 12:54:41;;;;;;;3.47;2.27;;;14.80;99.90;;;;;;4417330;28;655922;-77
2021/10/15 12:57:36;;;;;;;3.90;2.40;;;16.20;99.90;;;;;;4412858;28;655407;-78
2021/10/15 13:00:24;;;;;;;4.33;2.37;;;15.80;99.90;;;;;;4410645;28;655486;-79
2021/10/15 13:03:11;;;;;;;4.17;2.37;;;15.40;99.90;;;;;;4423802;28;654786;-79
2021/10/15 13:06:01;;;;;;;3.70;2.67;;;14.80;99.90;;;;;;4436074;28;654612;-77
2021/10/15 13:08:49;;;;;;;5.37;2.83;;;14.30;99.90;;;;;;4429948;28;655532;-80
2021/10/15 13:11:37;;;;;;;4.03;2.67;;;13.70;99.90;;;;;;4419668;28;655378;-77
2021/10/15 13:14:29;;;;;;;8.10;3.00;;;13.20;99.90;;;;;;4435796;28;654789;-79
2021/10/15 13:17:18;;;;;;;6.30;3.10;;;12.90;99.90;;;;;;4416100;28;655547;-79
2021/10/15 13:20:07;;;;;;;9.57;3.20;;;12.50;99.90;;;;;;4421698;28;654962;-82
2021/10/15 13:22:55;;;;;;;5.90;3.10;;;12.40;99.90;;;;;;4450142;28;653871;-80
2021/10/15 13:25:43;;;;;;;7.23;3.33;;;12.20;99.90;;;;;;4420807;28;655036;-80
2021/10/15 13:28:31;;;;;;;7.10;3.33;;;12.00;99.90;;;;;;4420556;28;656505;-75
2021/10/15 13:31:20;;;;;;;6.77;3.60;;;11.80;99.90;;;;;;4440598;28;656735;-80
2021/10/15 13:34:08;;;;;;;6.20;3.60;;;11.80;99.90;;;;;;4416215;28;656354;-81
2021/10/15 13:36:56;;;;;;;5.33;3.23;;;11.70;99.90;;;;;;4418631;28;655963;-79
2021/10/15 13:39:47;;;;;;;6.83;3.30;;;11.70;99.90;;;;;;4437125;28;655872;-80
2021/10/15 13:43:04;;;;;;;4.13;2.83;;;11.70;99.90;;;;;;4407865;28;655197;-76
2021/10/15 13:45:59;;;;;;;4.37;2.83;;;11.60;99.90;;;;;;4381750;28;655454;-79
2021/10/15 13:51:53;;;;;;;8.30;3.50;;;11.50;99.90;;;;;;4407659;28;656046;-80
2021/10/15 13:54:41;;;;;;;7.23;3.60;;;11.60;99.90;;;;;;4413798;28;655471;-78
2021/10/15 13:57:28;;;;;;;6.63;2.83;;;13.40;99.90;;;;;;4421694;28;656715;-77
2021/10/15 14:00:21;;;;;;;7.73;4.00;;;14.20;99.90;;;;;;4398222;28;655772;-78
2021/10/15 14:03:16;;;;;;;6.87;2.93;;;14.40;99.90;;;;;;4398544;28;655972;-78
2021/10/15 14:06:05;;;;;;;6.77;3.97;;;14.10;99.90;;;;;;4400417;28;655679;-79
2021/10/15 14:08:53;;;;;;;6.13;3.73;;;13.70;99.90;;;;;;4398326;28;655430;-78
2021/10/15 14:11:41;;;;;;;7.60;3.60;;;13.20;99.90;;;;;;4399394;28;655319;-78
2021/10/15 14:14:29;;;;;;;6.23;3.47;;;12.80;99.90;;;;;;4423373;28;655161;-82
2021/10/15 14:17:17;;;;;;;9.90;3.67;;;12.40;99.90;;;;;;4403026;28;655458;-80
2021/10/15 14:20:05;;;;;;;8.27;3.73;;;12.10;99.90;;;;;;4435512;28;655663;-80
2021/10/15 14:22:54;;;;;;;5.80;3.67;;;12.00;99.90;;;;;;4409052;28;656478;-80
2021/10/15 14:25:42;;;;;;;5.63;3.70;;;11.80;99.90;;;;;;4409774;28;655729;-79
2021/10/15 14:28:30;;;;;;;6.87;3.87;;;11.80;99.90;;;;;;4425305;28;655526;-79
2021/10/15 14:31:17;;;;;;;8.83;3.60;;;11.80;99.90;;;;;;4382299;28;655759;-80
2021/10/15 14:34:05;;;;;;;5.68;3.60;;;11.70;99.90;;;;;;4413568;28;655450;-81
2021/10/15 14:36:52;;;;;;;6.70;3.23;;;11.50;99.90;;;;;;4383987;28;656503;-80
2021/10/15 14:39:42;;;;;;;6.00;3.83;;;11.40;99.90;;;;;;4431109;28;655798;-78